This is the latest recevied weather packets stored in our database for station/object YH8VA-1. If no packets are shown the sender has not sent any weather packets the latest 10 day(s).
| Time | Temp. | Humidity | Pressure | Rain* | Wind** | Luminosity | Snow |
|---|---|---|---|---|---|---|---|
| 1778209139 | 33.33° C | 61% | 999 hPa | - | - | 0 W/m² | - |
| 1778208817 | 33.33° C | 61% | 999 hPa | - | - | 0 W/m² | - |
| 1778208495 | 33.33° C | 60% | 999 hPa | - | - | 0 W/m² | - |
| 1778208173 | 33.33° C | 60% | 999 hPa | - | - | 0 W/m² | - |
| 1778207851 | 33.33° C | 61% | 999 hPa | - | - | 0 W/m² | - |
| 1778207530 | 33.33° C | 61% | 999 hPa | - | - | 0 W/m² | - |
| 1778207207 | 33.33° C | 61% | 999 hPa | - | - | 0 W/m² | - |
| 1778206885 | 33.33° C | 61% | 999 hPa | - | - | 0 W/m² | - |
| 1778206563 | 32.78° C | 62% | 999 hPa | - | - | 0 W/m² | - |
| 1778206241 | 33.33° C | 61% | 999 hPa | - | - | 0 W/m² | - |
| 1778205919 | 33.33° C | 61% | 999 hPa | - | - | 0 W/m² | - |
| 1778205597 | 33.33° C | 61% | 999 hPa | - | - | 0 W/m² | - |
| 1778205275 | 33.89° C | 60% | 999 hPa | - | - | 0 W/m² | - |
| 1778204953 | 33.89° C | 60% | 999 hPa | - | - | 0 W/m² | - |
| 1778204631 | 33.89° C | 60% | 999 hPa | - | - | 0 W/m² | - |
| 1778204309 | 33.89° C | 60% | 999 hPa | - | - | 0 W/m² | - |
| 1778203986 | 33.33° C | 62% | 999 hPa | - | - | 0 W/m² | - |
| 1778203664 | 32.22° C | 66% | 999 hPa | - | - | 0 W/m² | - |
| 1778203342 | 29.44° C | 73% | 999 hPa | - | - | 0 W/m² | - |
| 1778202030 | 32.22° C | 63% | 999 hPa | - | - | 0 W/m² | - |
| 1778201978 | 32.22° C | 63% | 999 hPa | - | - | 0 W/m² | - |
| 1778201630 | 33.33° C | 60% | 999 hPa | - | - | 0 W/m² | - |
| 1778201308 | 33.33° C | 60% | 1000 hPa | - | - | 0 W/m² | - |
| 1778200986 | 32.78° C | 62% | 1000 hPa | - | - | 0 W/m² | - |
| 1778200664 | 33.33° C | 60% | 1000 hPa | - | - | 0 W/m² | - |
* Rain since midnight (hover to see other rain measurements)
** Current wind speed in m/s (hover to see current wind gust speed)